Time;durP1;ratioP1;P1;durP2;ratioP2;P2;SDS_P1;SDS_P2;PMS_P1;PMS_P2;Temp;Humidity;BMP_temperature;BMP_pressure;BME280_temperature;BME280_humidity;BME280_pressure;Samples;Min_cycle;Max_cycle;Signal;HPM_P1;HPM_P2
2022/07/11 00:00:45;;;;;;;2.75;1.27;;;;;;;18.48;67.88;101799.94;7401310;19;20014;-59
2022/07/11 00:10:46;;;;;;;2.40;1.38;;;;;;;18.54;67.26;101769.59;7396534;19;20006;-63
2022/07/11 00:13:14;;;;;;;3.08;1.50;;;;;;;18.53;67.16;101776.41;7395489;19;20475;-59
2022/07/11 00:15:41;;;;;;;2.17;1.60;;;;;;;18.43;67.83;101762.94;7396715;19;20010;-60
2022/07/11 00:18:10;;;;;;;3.40;1.40;;;;;;;18.32;68.16;101759.94;7396965;19;20497;-60
2022/07/11 00:20:38;;;;;;;3.65;2.08;;;;;;;18.35;68.01;101756.41;7399450;19;20010;-60
2022/07/11 00:31:40;;;;;;;5.38;3.58;;;;;;;18.21;68.01;101751.34;7397524;19;20038;-62
2022/07/11 00:34:28;;;;;;;4.45;3.15;;;;;;;18.16;68.36;101743.25;7395094;19;20018;-61
2022/07/11 00:37:06;;;;;;;3.97;2.22;;;;;;;18.12;68.65;101736.78;7394073;19;20014;-60
2022/07/11 00:39:33;;;;;;;6.30;2.53;;;;;;;18.08;68.96;101735.91;7397175;19;20034;-60
2022/07/11 00:42:01;;;;;;;5.15;1.88;;;;;;;18.04;69.28;101734.22;7395535;19;20766;-60
2022/07/11 00:44:28;;;;;;;3.65;2.40;;;;;;;18.01;69.01;101724.56;7396098;19;20010;-60
2022/07/11 00:46:56;;;;;;;2.25;1.92;;;;;;;18.05;69.21;101724.63;7394485;19;20504;-60
2022/07/11 00:49:24;;;;;;;2.90;1.90;;;;;;;17.99;69.20;101715.72;7397671;19;20022;-60
2022/07/11 00:51:51;;;;;;;3.35;2.58;;;;;;;17.92;69.63;101710.00;7394494;19;20034;-60
2022/07/11 00:54:22;;;;;;;2.42;2.22;;;;;;;17.98;69.64;101713.28;7393070;19;20018;-60
2022/07/11 00:56:50;;;;;;;3.80;2.67;;;;;;;17.98;69.43;101708.50;7395493;19;20015;-59
2022/07/11 00:59:19;;;;;;;5.72;2.67;;;;;;;17.97;69.64;101700.47;7393577;19;20014;-60
2022/07/11 01:01:46;;;;;;;4.07;3.10;;;;;;;17.95;69.67;101708.44;7395203;19;20010;-60
2022/07/11 01:04:14;;;;;;;4.07;3.08;;;;;;;17.89;70.04;101704.31;7394670;19;20487;-60
2022/07/11 01:06:42;;;;;;;3.80;2.83;;;;;;;17.85;69.99;101703.44;7395776;19;20017;-60
2022/07/11 01:09:11;;;;;;;5.93;3.28;;;;;;;17.85;70.15;101704.25;7397474;19;20142;-60
2022/07/11 01:11:39;;;;;;;4.18;3.20;;;;;;;17.82;69.89;101715.41;7395729;19;20011;-60
2022/07/11 01:14:06;;;;;;;5.57;2.63;;;;;;;17.82;70.08;101715.41;7391696;19;20424;-60
2022/07/11 01:20:38;;;;;;;4.20;2.50;;;;;;;17.65;70.75;101716.66;7394654;19;20010;-59
2022/07/11 01:23:06;;;;;;;4.35;2.85;;;;;;;17.68;70.48;101715.09;7394416;19;20010;-60
2022/07/11 01:33:21;;;;;;;3.33;2.83;;;;;;;17.62;70.81;101700.59;7399694;19;20015;-60
2022/07/11 01:35:49;;;;;;;3.42;2.17;;;;;;;17.63;70.50;101700.22;7400676;19;20367;-60
2022/07/11 01:38:16;;;;;;;5.35;2.78;;;;;;;17.60;70.49;101703.78;7399137;19;20038;-60
2022/07/11 01:40:44;;;;;;;3.67;2.45;;;;;;;17.55;70.73;101698.44;7401915;19;20031;-60
2022/07/11 01:43:11;;;;;;;3.45;2.25;;;;;;;17.48;70.91;101698.28;7401151;19;20019;-60
2022/07/11 01:45:59;;;;;;;3.78;2.88;;;;;;;17.42;70.96;101694.16;7397996;19;20026;-59
2022/07/11 01:52:33;;;;;;;3.95;2.42;;;;;;;17.40;71.24;101699.31;7403354;19;20494;-60
2022/07/11 01:55:21;;;;;;;6.75;3.35;;;;;;;17.36;71.47;101706.84;7401550;19;20027;-60
2022/07/11 01:58:09;;;;;;;3.03;2.40;;;;;;;17.34;71.49;101694.41;7402797;19;20010;-60
2022/07/11 02:00:57;;;;;;;5.20;2.53;;;;;;;17.34;71.57;101683.97;7399625;19;20014;-59
2022/07/11 02:03:45;;;;;;;2.85;1.92;;;;;;;17.39;71.24;101685.69;7403067;19;20010;-60
2022/07/11 02:06:34;;;;;;;6.47;2.50;;;;;;;17.43;71.02;101675.38;7398258;19;20321;-60
2022/07/11 02:09:22;;;;;;;3.50;2.55;;;;;;;17.33;71.26;101682.38;7400837;19;20015;-60
2022/07/11 02:12:09;;;;;;;3.83;2.45;;;;;;;17.26;71.72;101687.81;7403581;19;20035;-60
2022/07/11 02:14:57;;;;;;;6.15;2.65;;;;;;;17.23;72.18;101688.56;7402010;19;20074;-60
2022/07/11 02:17:45;;;;;;;2.58;2.38;;;;;;;17.22;72.39;101686.13;7400572;19;20033;-60
2022/07/11 02:20:13;;;;;;;2.97;2.67;;;;;;;17.25;72.09;101691.81;7403284;19;20006;-60
2022/07/11 02:29:41;;;;;;;2.00;1.90;;;;;;;17.12;72.01;101676.34;7398321;19;20014;-60
2022/07/11 02:32:29;;;;;;;3.60;2.53;;;;;;;17.14;71.53;101673.97;7400919;19;20011;-60
2022/07/11 02:35:17;;;;;;;2.80;2.28;;;;;;;17.09;72.28;101677.06;7400787;19;20460;-60
2022/07/11 02:38:05;;;;;;;2.45;2.03;;;;;;;17.04;72.36;101677.34;7398067;19;20073;-60
2022/07/11 02:40:53;;;;;;;3.78;2.30;;;;;;;17.00;72.61;101676.44;7401263;19;20010;-60
2022/07/11 02:43:41;;;;;;;3.67;2.60;;;;;;;16.92;72.85;101680.25;7400349;19;20014;-60
2022/07/11 02:46:29;;;;;;;2.90;2.50;;;;;;;16.95;72.59;101673.94;7400349;19;20025;-60
2022/07/11 02:49:17;;;;;;;3.60;2.75;;;;;;;16.96;72.29;101668.00;7400214;19;20329;-60
2022/07/11 02:52:05;;;;;;;6.18;2.55;;;;;;;16.94;72.43;101669.53;7395875;19;20018;-60
2022/07/11 02:54:53;;;;;;;2.47;2.28;;;;;;;16.87;72.43;101669.38;7397196;19;20034;-60
2022/07/11 02:57:21;;;;;;;2.20;2.00;;;;;;;16.84;73.01;101670.09;7397651;19;20014;-59
2022/07/11 02:59:48;;;;;;;4.70;2.35;;;;;;;16.93;72.30;101673.50;7399730;19;20010;-60
2022/07/11 03:02:16;;;;;;;5.28;2.65;;;;;;;16.95;72.46;101676.75;7396865;19;20037;-60
2022/07/11 03:04:43;;;;;;;4.15;2.63;;;;;;;16.89;72.19;101656.63;7400917;19;20040;-59
2022/07/11 03:10:50;;;;;;;6.20;2.70;;;;;;;16.77;72.86;101658.75;7397944;19;20007;-60
2022/07/11 03:13:17;;;;;;;3.25;2.67;;;;;;;16.77;72.33;101653.16;7399507;19;20014;-60
2022/07/11 03:15:44;;;;;;;3.40;2.67;;;;;;;16.72;72.69;101650.66;7397898;19;20019;-61
2022/07/11 03:18:12;;;;;;;3.78;2.10;;;;;;;16.65;73.32;101650.50;7397682;19;20337;-60
2022/07/11 03:20:39;;;;;;;2.72;2.17;;;;;;;16.63;73.21;101650.03;7398941;19;20015;-60
2022/07/11 03:30:10;;;;;;;4.25;1.95;;;;;;;16.57;72.93;101643.94;7396115;19;20018;-60
2022/07/11 03:32:38;;;;;;;3.95;2.15;;;;;;;16.64;72.88;101638.50;7397148;19;20018;-60
2022/07/11 03:37:52;;;;;;;3.15;2.10;;;;;;;16.53;73.34;101642.22;7397358;19;20010;-61
2022/07/11 03:40:20;;;;;;;4.15;2.70;;;;;;;16.53;73.02;101640.22;7398663;19;20010;-63
2022/07/11 03:42:47;;;;;;;3.53;2.40;;;;;;;16.46;72.88;101637.25;7399732;19;20427;-60
2022/07/11 03:45:15;;;;;;;4.43;2.50;;;;;;;16.39;73.39;101643.47;7394999;19;20364;-60
2022/07/11 03:47:42;;;;;;;4.78;2.70;;;;;;;16.36;73.58;101649.78;7398946;19;20501;-60
2022/07/11 03:50:10;;;;;;;4.40;2.67;;;;;;;16.28;73.55;101641.59;7398727;19;20509;-60
2022/07/11 03:56:33;;;;;;;5.18;2.83;;;;;;;16.16;73.77;101639.72;7396932;19;20011;-62
2022/07/11 03:59:00;;;;;;;5.63;2.67;;;;;;;16.22;73.43;101643.03;7396804;19;20014;-60
2022/07/11 04:05:08;;;;;;;2.72;2.30;;;;;;;16.11;73.17;101645.56;7397863;19;20007;-62
2022/07/11 04:07:36;;;;;;;3.63;2.88;;;;;;;16.11;73.55;101636.38;7395997;19;20006;-60
2022/07/11 04:10:04;;;;;;;3.70;2.80;;;;;;;16.08;73.32;101642.66;7397386;19;20014;-59
2022/07/11 04:12:31;;;;;;;5.15;2.85;;;;;;;16.07;73.34;101649.44;7392790;19;20095;-60
2022/07/11 04:14:59;;;;;;;3.53;2.20;;;;;;;16.03;73.42;101640.97;7398626;19;20389;-60
2022/07/11 04:17:27;;;;;;;3.17;2.72;;;;;;;16.03;73.43;101635.38;7395546;19;20060;-64
2022/07/11 04:23:18;;;;;;;2.80;2.40;;;;;;;16.00;73.48;101632.50;7393083;19;20010;-60
2022/07/11 04:25:47;;;;;;;7.57;3.03;;;;;;;15.97;73.38;101642.41;7396572;19;20014;-59
2022/07/11 04:28:14;;;;;;;3.67;2.80;;;;;;;15.94;73.58;101650.72;7395182;19;20006;-59
2022/07/11 04:30:42;;;;;;;7.50;2.63;;;;;;;15.94;73.72;101647.91;7396360;19;20015;-60
2022/07/11 04:33:09;;;;;;;7.10;2.85;;;;;;;15.90;73.80;101647.00;7395167;19;20472;-60
2022/07/11 04:35:37;;;;;;;5.53;2.80;;;;;;;15.95;73.80;101644.75;7398226;19;20010;-59
2022/07/11 04:38:05;;;;;;;4.28;2.30;;;;;;;15.98;73.45;101646.81;7395634;19;20015;-60
2022/07/11 04:40:33;;;;;;;5.03;3.33;;;;;;;16.01;73.45;101643.31;7395091;19;20041;-59
2022/07/11 04:43:00;;;;;;;3.53;2.55;;;;;;;15.99;73.56;101642.06;7395413;19;20022;-60
2022/07/11 04:45:28;;;;;;;4.18;2.60;;;;;;;16.01;73.15;101637.72;7395794;19;20132;-60
2022/07/11 04:47:55;;;;;;;5.38;2.58;;;;;;;15.97;73.62;101639.59;7394087;19;20064;-59
2022/07/11 04:50:23;;;;;;;3.70;2.30;;;;;;;15.93;73.58;101635.13;7395204;19;20389;-60
2022/07/11 04:56:15;;;;;;;3.67;2.92;;;;;;;15.98;73.06;101634.84;7395831;19;20011;-60
2022/07/11 04:58:43;;;;;;;4.57;2.75;;;;;;;16.01;73.45;101639.72;7392355;19;20006;-59
2022/07/11 05:01:10;;;;;;;4.88;3.38;;;;;;;16.05;73.37;101630.25;7398980;19;20010;-60
2022/07/11 05:07:03;;;;;;;7.15;3.03;;;;;;;16.04;73.63;101623.06;7397578;19;20011;-60
2022/07/11 05:13:16;;;;;;;5.57;3.13;;;;;;;16.03;73.67;101623.41;7403128;19;20465;-59
2022/07/11 05:15:44;;;;;;;4.60;3.42;;;;;;;16.09;73.63;101630.34;7403706;19;20033;-59
2022/07/11 05:18:11;;;;;;;6.80;3.40;;;;;;;16.13;73.92;101629.25;7402316;19;20022;-60
2022/07/11 05:20:39;;;;;;;8.00;4.40;;;;;;;16.17;73.88;101624.56;7403148;19;20006;-59
2022/07/11 05:23:07;;;;;;;10.48;3.90;;;;;;;16.16;74.55;101628.53;7399297;19;20017;-58
2022/07/11 05:25:34;;;;;;;5.97;3.67;;;;;;;16.23;74.59;101623.09;7401784;19;20014;-59
2022/07/11 05:28:02;;;;;;;5.72;3.67;;;;;;;16.29;74.88;101632.03;7403475;19;20014;-59
2022/07/11 05:30:29;;;;;;;5.70;3.28;;;;;;;16.38;75.03;101629.88;7402991;19;20021;-60
2022/07/11 05:32:57;;;;;;;5.78;3.42;;;;;;;16.47;74.58;101624.09;7402045;19;20038;-60
2022/07/11 05:35:25;;;;;;;6.35;3.63;;;;;;;16.53;74.68;101623.47;7403817;19;20019;-60
2022/07/11 05:37:52;;;;;;;4.00;2.85;;;;;;;16.60;74.55;101622.81;7400983;19;20048;-60
2022/07/11 05:40:20;;;;;;;6.95;4.53;;;;;;;16.67;74.98;101625.78;7397408;19;20458;-59
2022/07/11 05:42:47;;;;;;;6.20;3.97;;;;;;;16.70;75.25;101630.63;7398484;19;20045;-59
2022/07/11 05:45:15;;;;;;;5.10;3.28;;;;;;;16.80;75.25;101632.84;7401489;19;20038;-59
2022/07/11 05:47:42;;;;;;;8.18;5.15;;;;;;;16.90;75.80;101627.50;7402755;19;20078;-59
2022/07/11 05:50:10;;;;;;;5.90;3.95;;;;;;;17.03;75.97;101628.16;7403207;19;20019;-59
2022/07/11 05:52:58;;;;;;;6.05;3.92;;;;;;;17.21;75.42;101626.53;7403015;19;20099;-59
2022/07/11 05:55:46;;;;;;;5.55;3.88;;;;;;;17.37;75.56;101627.25;7401228;19;20049;-60
2022/07/11 05:58:34;;;;;;;5.72;4.22;;;;;;;17.47;75.66;101621.06;7398670;19;20019;-59
2022/07/11 06:01:22;;;;;;;5.53;3.63;;;;;;;17.57;75.37;101626.09;7400657;19;20011;-59
2022/07/11 06:03:50;;;;;;;6.80;4.75;;;;;;;17.67;75.40;101627.47;7398486;19;20015;-60
2022/07/11 06:06:17;;;;;;;6.28;3.58;;;;;;;17.76;75.42;101624.44;7402561;19;20015;-59
2022/07/11 06:08:45;;;;;;;4.60;2.83;;;;;;;17.82;75.80;101620.94;7398745;19;20035;-63
2022/07/11 06:11:14;;;;;;;3.88;3.47;;;;;;;17.89;75.89;101620.28;7402047;19;20015;-60
2022/07/11 06:13:47;;;;;;;5.53;4.13;;;;;;;17.93;76.14;101621.13;7401802;19;20603;-60
2022/07/11 06:16:15;;;;;;;7.47;4.15;;;;;;;17.97;75.58;101620.03;7396225;19;20030;-60
2022/07/11 06:18:42;;;;;;;4.35;3.15;;;;;;;18.02;75.82;101613.28;7399504;19;20014;-60
2022/07/11 06:21:11;;;;;;;7.50;4.47;;;;;;;18.08;75.98;101617.41;7395497;19;20014;-60
2022/07/11 06:23:40;;;;;;;6.28;3.92;;;;;;;18.12;75.73;101612.66;7402450;19;20060;-60
2022/07/11 06:26:08;;;;;;;6.05;4.35;;;;;;;18.15;75.58;101611.91;7399404;19;20014;-60
2022/07/11 06:28:35;;;;;;;4.82;3.72;;;;;;;18.19;75.71;101624.78;7400826;19;20015;-59
2022/07/11 06:31:03;;;;;;;6.00;3.85;;;;;;;18.23;75.70;101617.25;7399837;19;20018;-60
2022/07/11 06:33:31;;;;;;;6.68;3.70;;;;;;;18.27;75.61;101620.91;7400336;19;20018;-60
2022/07/11 06:35:58;;;;;;;6.45;4.00;;;;;;;18.32;75.84;101621.78;7398057;19;20010;-60
2022/07/11 06:38:25;;;;;;;5.95;3.85;;;;;;;18.38;75.64;101625.88;7397025;19;20056;-60
2022/07/11 06:40:53;;;;;;;5.80;3.45;;;;;;;18.43;75.98;101629.16;7396979;19;20006;-60
2022/07/11 06:43:21;;;;;;;6.22;4.20;;;;;;;18.48;75.69;101626.06;7395103;19;20011;-60
2022/07/11 06:45:50;;;;;;;6.32;4.50;;;;;;;18.58;75.10;101624.63;7398621;19;20015;-60
2022/07/11 06:48:21;;;;;;;4.85;3.58;;;;;;;18.66;74.73;101621.56;7403467;19;20519;-60
2022/07/11 06:50:48;;;;;;;5.20;4.10;;;;;;;18.77;75.01;101627.31;7401231;19;20517;-61
2022/07/11 06:53:16;;;;;;;5.70;4.00;;;;;;;18.87;75.00;101626.66;7403358;19;20018;-60
2022/07/11 06:55:43;;;;;;;5.88;4.38;;;;;;;18.94;75.03;101626.75;7401206;19;20014;-60
2022/07/11 06:58:12;;;;;;;7.93;3.83;;;;;;;19.02;74.98;101616.41;7395854;19;20476;-60
2022/07/11 07:00:55;;;;;;;6.55;3.38;;;;;;;19.13;75.05;101634.19;7396339;19;20018;-60
2022/07/11 07:03:22;;;;;;;5.00;2.85;;;;;;;19.22;74.82;101620.69;7402142;19;20052;-60
2022/07/11 07:05:51;;;;;;;4.68;3.10;;;;;;;19.33;74.68;101621.59;7399592;19;20015;-60
2022/07/11 07:08:18;;;;;;;3.95;3.00;;;;;;;19.41;73.98;101624.13;7400746;19;20048;-60
2022/07/11 07:14:11;;;;;;;4.88;3.05;;;;;;;19.66;73.67;101618.81;7398303;19;20363;-60
2022/07/11 07:16:39;;;;;;;4.18;2.35;;;;;;;19.75;73.43;101608.03;7397317;19;20006;-60
2022/07/11 07:29:38;;;;;;;2.53;2.33;;;;;;;20.32;71.98;101617.81;7398452;19;20003;-61
2022/07/11 07:32:06;;;;;;;3.35;2.90;;;;;;;20.44;71.49;101619.47;7398326;19;20010;-60
2022/07/11 07:34:34;;;;;;;2.65;1.80;;;;;;;20.52;70.74;101627.59;7396075;19;20013;-60
2022/07/11 07:40:32;;;;;;;1.83;1.73;;;;;;;20.58;69.46;101616.78;7395376;19;20040;-60
2022/07/11 07:46:46;;;;;;;2.67;1.52;;;;;;;20.80;68.52;101626.97;7399279;19;20011;-61
2022/07/11 07:49:35;;;;;;;2.50;1.88;;;;;;;20.86;68.05;101625.41;7396295;19;20014;-57
2022/07/11 07:52:22;;;;;;;3.28;1.70;;;;;;;20.92;67.68;101629.44;7398937;19;20013;-58
2022/07/11 07:55:10;;;;;;;2.60;2.20;;;;;;;20.98;67.51;101630.69;7397223;19;20027;-57
2022/07/11 07:57:58;;;;;;;3.22;1.98;;;;;;;21.00;66.54;101631.09;7398787;19;20006;-58
2022/07/11 08:03:54;;;;;;;2.83;2.10;;;;;;;21.03;65.85;101630.31;7397305;19;20464;-58
2022/07/11 08:06:43;;;;;;;2.40;2.20;;;;;;;21.06;65.63;101623.91;7399976;19;20038;-58
2022/07/11 08:09:31;;;;;;;2.83;2.47;;;;;;;21.12;65.00;101621.53;7397040;19;20026;-58
2022/07/11 08:12:19;;;;;;;2.63;2.20;;;;;;;21.17;65.16;101613.50;7400387;19;20477;-57
2022/07/11 08:15:07;;;;;;;2.22;1.80;;;;;;;21.34;64.80;101623.22;7399521;19;20015;-58
2022/07/11 08:17:55;;;;;;;1.60;1.50;;;;;;;21.53;64.15;101619.25;7398558;19;20011;-58
2022/07/11 08:28:12;;;;;;;2.35;1.67;;;;;;;22.16;62.19;101621.38;7394274;19;20007;-58
2022/07/11 08:31:00;;;;;;;2.92;1.70;;;;;;;22.77;62.33;101614.47;7399605;19;20015;-58
2022/07/11 08:33:48;;;;;;;4.55;1.30;;;;;;;23.49;61.03;101616.59;7396074;19;20426;-58
2022/07/11 08:37:21;;;;;;;1.23;1.02;;;;;;;24.33;58.11;101615.19;7393878;19;20011;-59
2022/07/11 08:43:01;;;;;;;2.70;1.13;;;;;;;25.68;57.90;101620.91;7392122;19;19987;-58
2022/07/11 08:52:20;;;;;;;2.88;1.20;;;;;;;26.39;51.96;101614.13;7395369;19;20010;-58
2022/07/11 08:54:47;;;;;;;1.80;1.02;;;;;;;26.42;51.23;101616.09;7393777;19;20019;-58
2022/07/11 08:57:15;;;;;;;4.72;1.17;;;;;;;26.41;50.21;101611.63;7397011;19;20423;-58
2022/07/11 09:03:40;;;;;;;2.30;1.05;;;;;;;26.94;46.46;101604.97;7394414;19;20015;-58
2022/07/11 09:06:07;;;;;;;2.25;0.80;;;;;;;27.14;46.87;101602.91;7397164;19;20018;-58
2022/07/11 09:08:35;;;;;;;5.28;1.27;;;;;;;27.28;46.47;101598.97;7394296;19;20087;-59
2022/07/11 09:11:04;;;;;;;1.10;0.77;;;;;;;27.38;45.52;101604.41;7399295;19;20078;-58
2022/07/11 09:13:32;;;;;;;6.03;1.52;;;;;;;27.44;45.32;101599.03;7394191;19;20014;-60
2022/07/11 09:16:06;;;;;;;1.55;0.93;;;;;;;27.40;44.59;101595.50;7394498;19;20086;-59
2022/07/11 09:18:39;;;;;;;2.10;0.90;;;;;;;27.38;44.33;101580.84;7396490;19;20115;-58
2022/07/11 09:28:08;;;;;;;2.78;1.23;;;;;;;26.86;43.56;101569.41;7393342;19;20014;-58
2022/07/11 09:35:00;;;;;;;1.27;1.00;;;;;;;27.00;43.44;101578.44;7397105;19;20089;-58
2022/07/11 09:41:39;;;;;;;1.85;0.80;;;;;;;27.37;42.92;101553.69;7394098;19;20014;-61
2022/07/11 09:44:19;;;;;;;1.48;1.00;;;;;;;27.80;42.10;101537.19;7391107;19;20513;-59
2022/07/11 10:00:58;;;;;;;1.17;0.80;;;;;;;29.11;39.11;101537.28;7402214;19;20014;-58
2022/07/11 10:06:58;;;;;;;0.70;0.70;;;;;;;28.79;38.57;101517.47;7396810;19;20006;-58
2022/07/11 10:09:28;;;;;;;1.98;0.98;;;;;;;28.42;39.36;101518.09;7401458;19;20015;-59
2022/07/11 10:11:57;;;;;;;2.70;0.88;;;;;;;28.08;39.54;101519.44;7391772;19;20011;-59
2022/07/11 10:14:25;;;;;;;2.38;1.23;;;;;;;27.94;39.90;101514.06;7399661;19;20033;-58
2022/07/11 10:17:10;;;;;;;1.77;1.20;;;;;;;27.63;40.03;101512.84;7398802;19;20468;-58
2022/07/11 10:24:02;;;;;;;1.95;0.98;;;;;;;26.91;42.74;101510.00;7397283;19;20042;-58
2022/07/11 10:30:54;;;;;;;2.30;0.90;;;;;;;26.28;43.99;101505.59;7398948;19;20011;-58
2022/07/11 10:40:12;;;;;;;2.72;1.00;;;;;;;25.19;46.34;101494.84;7400743;19;20011;-57
2022/07/11 10:42:42;;;;;;;2.58;1.38;;;;;;;25.09;46.92;101504.28;7395788;19;20011;-58
2022/07/11 10:45:11;;;;;;;2.92;1.42;;;;;;;25.06;47.36;101507.16;7401307;19;20010;-58
2022/07/11 10:47:42;;;;;;;3.22;1.00;;;;;;;25.09;47.67;101506.31;7399513;19;20022;-57
2022/07/11 10:50:21;;;;;;;1.33;1.10;;;;;;;25.04;48.05;101518.13;7401143;19;20036;-57
2022/07/11 10:52:49;;;;;;;3.50;1.10;;;;;;;24.92;48.21;101515.84;7399249;19;20103;-57
2022/07/11 10:55:30;;;;;;;4.18;1.15;;;;;;;24.88;48.34;101515.13;7398847;19;20014;-58
2022/07/11 10:58:08;;;;;;;3.58;1.08;;;;;;;24.85;48.46;101513.13;7397516;19;20010;-58
2022/07/11 11:08:15;;;;;;;5.85;1.55;;;;;;;24.75;48.83;101524.13;7400423;19;20011;-58
2022/07/11 11:11:29;;;;;;;2.40;1.10;;;;;;;24.97;48.74;101504.03;7400241;19;20044;-58
2022/07/11 11:22:21;;;;;;;3.45;1.40;;;;;;;25.15;48.22;101487.63;7400835;19;20007;-59
2022/07/11 11:29:06;;;;;;;2.63;1.30;;;;;;;25.63;47.42;101473.13;7399847;19;20471;-57
2022/07/11 11:38:39;;;;;;;1.02;0.90;;;;;;;25.95;47.22;101462.78;7397240;19;20474;-59
2022/07/11 11:41:08;;;;;;;2.43;1.03;;;;;;;26.05;47.12;101458.19;7395206;19;20015;-59
2022/07/11 11:54:29;;;;;;;5.32;1.33;;;;;;;25.87;47.39;101457.69;7401123;19;20010;-59
2022/07/11 11:57:21;;;;;;;2.70;1.50;;;;;;;26.02;47.03;101454.16;7400415;19;20011;-59
2022/07/11 12:00:31;;;;;;;1.60;1.50;;;;;;;26.21;46.97;101443.31;7399692;19;20028;-59
2022/07/11 12:03:22;;;;;;;8.75;2.00;;;;;;;26.22;47.03;101436.38;7397123;19;20084;-59
2022/07/11 12:16:53;;;;;;;3.33;1.10;;;;;;;26.41;46.36;101399.47;7394160;19;20524;-59
2022/07/11 12:19:22;;;;;;;2.20;1.02;;;;;;;26.34;46.62;101387.47;7399505;19;20033;-60
2022/07/11 12:25:39;;;;;;;3.78;1.08;;;;;;;26.29;46.62;101396.50;7398717;19;20006;-59
2022/07/11 12:31:54;;;;;;;1.48;0.95;;;;;;;26.21;46.60;101397.88;7395468;19;20014;-59
2022/07/11 12:34:44;;;;;;;3.00;0.88;;;;;;;26.15;46.64;101393.94;7397593;19;20011;-59
2022/07/11 12:37:38;;;;;;;1.38;0.63;;;;;;;25.97;47.12;101395.06;7398940;19;20326;-59
2022/07/11 12:40:26;;;;;;;2.40;1.00;;;;;;;25.91;47.23;101391.16;7394917;19;20014;-61
2022/07/11 12:50:26;;;;;;;4.03;0.80;;;;;;;25.64;47.58;101384.75;7396576;19;20341;-60
2022/07/11 13:03:51;;;;;;;2.50;0.75;;;;;;;25.55;47.64;101387.34;7395338;19;20007;-59
2022/07/11 13:10:51;;;;;;;2.80;0.90;;;;;;;25.66;47.15;101385.13;7396189;19;20013;-59
2022/07/11 13:13:52;;;;;;;6.03;1.17;;;;;;;25.74;47.57;101375.25;7394687;19;20499;-59
2022/07/11 13:20:37;;;;;;;3.25;0.80;;;;;;;26.08;47.06;101365.69;7394184;19;20003;-59
2022/07/11 13:23:06;;;;;;;2.13;0.82;;;;;;;26.15;47.34;101382.59;7403681;19;20018;-59
2022/07/11 13:29:12;;;;;;;3.78;0.77;;;;;;;26.05;46.78;101380.75;7402465;19;20007;-59
2022/07/11 13:31:43;;;;;;;2.35;0.60;;;;;;;26.13;46.51;101382.25;7402335;19;20006;-59
2022/07/11 13:34:11;;;;;;;2.22;1.23;;;;;;;26.27;46.42;101385.56;7405168;19;20011;-59
2022/07/11 13:44:21;;;;;;;2.30;1.02;;;;;;;27.14;45.28;101370.59;7404591;19;20014;-59
2022/07/11 13:47:09;;;;;;;2.00;1.05;;;;;;;27.52;44.66;101353.00;7402305;19;20074;-59
2022/07/11 13:53:48;;;;;;;2.33;0.77;;;;;;;27.69;43.86;101348.91;7404526;19;20002;-58
2022/07/11 13:56:32;;;;;;;4.28;0.90;;;;;;;27.80;43.61;101338.00;7401024;19;20010;-58
2022/07/11 13:58:59;;;;;;;2.70;1.00;;;;;;;28.13;43.22;101333.81;7399685;19;20086;-58
2022/07/11 14:05:09;;;;;;;3.30;0.80;;;;;;;28.89;42.69;101325.34;7403252;19;20014;-59
2022/07/11 14:07:37;;;;;;;1.52;0.88;;;;;;;29.23;41.89;101325.44;7400441;19;20046;-59
2022/07/11 14:10:05;;;;;;;2.97;0.70;;;;;;;29.42;41.33;101330.06;7403125;19;20011;-59
2022/07/11 14:12:34;;;;;;;2.85;0.70;;;;;;;29.33;40.84;101335.72;7403950;19;20018;-59
2022/07/11 14:15:02;;;;;;;2.38;0.73;;;;;;;29.40;40.05;101337.50;7402573;19;20388;-59
2022/07/11 14:21:21;;;;;;;3.88;0.77;;;;;;;29.53;39.55;101326.84;7401254;19;20018;-59
2022/07/11 14:24:09;;;;;;;3.85;0.98;;;;;;;29.63;38.96;101325.66;7402195;19;20015;-60
2022/07/11 14:26:57;;;;;;;1.58;0.50;;;;;;;29.98;38.69;101323.59;7404548;19;20035;-59
2022/07/11 14:29:46;;;;;;;3.20;0.82;;;;;;;30.22;38.60;101324.69;7402803;19;20030;-59
2022/07/11 14:32:34;;;;;;;4.53;0.80;;;;;;;30.38;38.36;101333.09;7399821;19;20011;-59
2022/07/11 14:39:34;;;;;;;1.60;0.50;;;;;;;30.54;37.18;101321.41;7404117;19;20009;-59
2022/07/11 14:42:22;;;;;;;1.02;0.70;;;;;;;30.75;38.07;101316.91;7397702;19;20010;-59
2022/07/11 14:45:28;;;;;;;3.58;0.65;;;;;;;30.89;37.74;101312.66;7402122;19;20034;-59
2022/07/11 14:55:23;;;;;;;2.53;1.15;;;;;;;30.56;36.69;101303.78;7394568;19;20011;-58
2022/07/11 15:01:16;;;;;;;0.95;0.60;;;;;;;30.34;38.32;101309.53;7398071;19;20007;-59
2022/07/11 15:03:44;;;;;;;1.42;0.70;;;;;;;30.31;37.64;101313.34;7402225;19;20017;-59
2022/07/11 15:06:14;;;;;;;2.17;1.13;;;;;;;30.16;38.19;101315.13;7403501;19;20034;-59
2022/07/11 15:14:34;;;;;;;2.25;1.00;;;;;;;30.64;38.19;101310.81;7401877;19;20002;-58
2022/07/11 15:18:01;;;;;;;1.30;0.57;;;;;;;30.58;37.84;101298.41;7400402;19;20011;-59
2022/07/11 15:24:53;;;;;;;3.17;1.02;;;;;;;30.70;37.29;101292.59;7397900;19;20019;-58
2022/07/11 15:27:21;;;;;;;2.78;1.00;;;;;;;30.80;38.21;101304.84;7400607;19;20017;-58
2022/07/11 15:33:50;;;;;;;3.80;0.50;;;;;;;30.77;36.58;101282.91;7398386;19;20017;-58
2022/07/11 15:40:29;;;;;;;3.22;0.90;;;;;;;30.82;36.18;101292.94;7401573;19;20003;-58
2022/07/11 15:46:58;;;;;;;2.17;1.42;;;;;;;30.53;37.93;101296.94;7400666;19;20007;-58
2022/07/11 15:53:11;;;;;;;2.22;0.82;;;;;;;30.82;35.36;101284.38;7388173;19;20011;-60
2022/07/11 15:55:39;;;;;;;0.77;0.60;;;;;;;30.99;33.52;101277.91;7388285;19;20018;-58
2022/07/11 16:05:24;;;;;;;0.60;0.50;;;;;;;30.64;32.64;101283.03;7394978;19;20082;-58
2022/07/11 16:07:52;;;;;;;1.88;0.60;;;;;;;30.47;32.62;101270.28;7396173;19;20446;-58
2022/07/11 16:10:20;;;;;;;2.42;0.57;;;;;;;30.41;32.98;101259.91;7394583;19;20014;-58
2022/07/11 16:12:48;;;;;;;0.70;0.50;;;;;;;30.26;32.69;101258.88;7398072;19;20013;-59
2022/07/11 16:15:15;;;;;;;1.25;0.60;;;;;;;30.04;33.45;101258.91;7397535;19;20014;-57
2022/07/11 16:36:57;;;;;;;0.60;0.40;;;;;;;29.58;32.97;101215.75;7379175;19;20017;-59
2022/07/11 16:43:38;;;;;;;1.42;0.47;;;;;;;29.56;32.53;101212.56;7398096;19;20011;-59
2022/07/11 16:46:08;;;;;;;16.45;2.60;;;;;;;29.68;33.37;101213.75;7398662;19;20006;-59
2022/07/11 16:48:56;;;;;;;1.50;0.60;;;;;;;29.51;33.21;101210.31;7400188;19;20014;-59
2022/07/11 16:51:44;;;;;;;2.17;0.75;;;;;;;29.26;33.67;101199.03;7397364;19;20011;-59
2022/07/11 16:58:22;;;;;;;0.55;0.50;;;;;;;28.95;33.83;101201.75;7402901;19;20062;-59
2022/07/11 17:14:55;;;;;;;0.65;0.55;;;;;;;28.46;34.38;101236.78;7405272;19;20030;-59
2022/07/11 17:17:43;;;;;;;2.65;0.60;;;;;;;28.32;34.30;101244.56;7404305;19;20022;-58
2022/07/11 17:34:35;;;;;;;2.50;0.60;;;;;;;27.86;34.70;101267.91;7395277;19;20787;-58
2022/07/11 18:01:08;;;;;;;0.63;0.60;;;;;;;27.23;37.19;101258.28;7396209;19;20023;-60
2022/07/11 18:07:12;;;;;;;2.22;1.00;;;;;;;27.21;37.13;101250.22;7395839;19;20368;-51
2022/07/11 18:16:51;;;;;;;2.40;1.10;;;;;;;27.24;37.91;101262.75;7393810;19;20003;-50
2022/07/11 18:24:09;;;;;;;1.17;0.90;;;;;;;27.11;38.09;101254.94;7396274;19;20017;-52
2022/07/11 18:26:57;;;;;;;2.60;1.00;;;;;;;27.02;38.20;101249.09;7403249;19;20495;-49
2022/07/11 18:30:30;;;;;;;3.03;1.02;;;;;;;26.88;38.53;101249.47;7399160;19;20006;-48
2022/07/11 18:37:03;;;;;;;0.85;0.65;;;;;;;26.62;38.26;101233.47;7400064;19;20024;-58
2022/07/11 18:46:49;;;;;;;4.13;1.58;;;;;;;26.27;38.80;101254.16;7402930;19;20038;-59
2022/07/11 18:49:37;;;;;;;2.70;0.98;;;;;;;26.07;38.78;101248.53;7398857;19;20361;-59
2022/07/11 18:52:24;;;;;;;2.17;0.75;;;;;;;25.95;39.07;101235.00;7401339;19;20070;-59
2022/07/11 18:55:12;;;;;;;2.33;0.80;;;;;;;25.93;38.91;101241.13;7399354;19;20333;-59
2022/07/11 18:58:02;;;;;;;1.38;0.95;;;;;;;25.93;38.79;101251.66;7401450;19;20078;-59
2022/07/11 19:00:50;;;;;;;3.85;0.70;;;;;;;25.83;38.77;101259.19;7399747;19;20078;-59
2022/07/11 19:03:38;;;;;;;3.70;1.33;;;;;;;25.78;38.77;101256.84;7403195;19;20030;-59
2022/07/11 19:06:26;;;;;;;2.35;0.90;;;;;;;25.81;38.76;101261.66;7402701;19;20365;-59